createdAt,value
2022-10-11T04:12:30.782Z,99.90
2022-10-11T04:48:08.383Z,99.90
2022-10-11T04:53:10.948Z,99.90
2022-10-11T04:58:12.758Z,99.90
2022-10-11T05:03:14.572Z,99.90
2022-10-11T05:08:16.938Z,99.90
2022-10-11T05:13:18.728Z,99.90
2022-10-11T05:18:20.799Z,99.90
2022-10-11T05:23:22.634Z,99.90
2022-10-11T05:28:24.648Z,99.90
2022-10-11T05:33:26.875Z,99.90
2022-10-11T05:38:28.724Z,99.90
2022-10-11T05:43:30.741Z,99.90
2022-10-11T05:48:32.757Z,99.90
2022-10-11T05:53:34.568Z,99.90
2022-10-11T05:58:36.351Z,99.90
2022-10-11T06:03:38.105Z,99.90
2022-10-11T06:08:39.941Z,99.90
2022-10-11T06:13:42.566Z,99.90
2022-10-11T06:18:44.557Z,99.90
2022-10-11T06:23:50.871Z,99.90
2022-10-11T06:28:52.987Z,99.90
2022-10-11T06:33:54.837Z,99.90
2022-10-11T06:38:56.684Z,99.90
2022-10-11T06:43:58.522Z,99.90
2022-10-11T06:49:00.589Z,99.90
2022-10-11T06:54:02.519Z,99.90
2022-10-11T06:59:04.285Z,99.90
2022-10-11T07:04:06.139Z,99.90
2022-10-11T07:09:08.599Z,99.90
2022-10-11T07:14:10.454Z,99.90
2022-10-11T07:19:12.296Z,99.90
2022-10-11T07:24:14.350Z,99.90
2022-10-11T07:29:16.240Z,99.90
2022-10-11T07:34:20.264Z,99.90
2022-10-11T07:39:22.456Z,99.90
2022-10-11T07:44:26.763Z,99.90
2022-10-11T07:49:28.666Z,99.90
2022-10-11T07:54:30.574Z,99.90
2022-10-11T07:59:32.518Z,99.90
2022-10-11T08:04:34.467Z,99.90
2022-10-11T08:09:36.376Z,99.90
2022-10-11T08:14:38.177Z,99.90
2022-10-11T08:19:40.451Z,99.90
2022-10-11T08:24:42.335Z,99.90
2022-10-11T08:29:44.173Z,99.90
2022-10-11T08:34:46.009Z,99.90
2022-10-11T08:39:47.953Z,99.90
2022-10-11T08:50:20.212Z,99.90
2022-10-11T08:55:32.211Z,99.90
2022-10-11T09:00:35.549Z,99.90
2022-10-11T09:06:17.816Z,99.90
2022-10-11T09:11:31.354Z,99.90
2022-10-11T09:16:48.461Z,99.90
2022-10-11T09:22:12.133Z,99.90
2022-10-11T09:28:01.372Z,99.90
2022-10-11T09:33:17.297Z,99.90
2022-10-11T09:38:31.242Z,99.90
2022-10-11T09:43:33.090Z,99.90
2022-10-11T09:48:40.761Z,99.90
2022-10-11T09:53:54.272Z,99.90
2022-10-11T09:59:34.575Z,99.90
2022-10-11T10:04:54.907Z,99.90
2022-10-11T10:09:59.933Z,99.90
2022-10-11T10:15:13.552Z,99.90
2022-10-11T10:20:22.896Z,99.90
2022-10-11T10:25:32.075Z,99.90
2022-10-11T10:30:35.692Z,99.90
2022-10-11T10:35:41.956Z,99.90
2022-10-11T10:40:48.689Z,99.90
2022-10-11T10:45:56.650Z,99.90
2022-10-11T10:51:07.162Z,99.90
2022-10-11T10:56:43.751Z,99.90
2022-10-11T11:01:56.628Z,99.90
2022-10-11T11:07:17.017Z,99.90
2022-10-11T11:12:29.870Z,99.90
2022-10-11T11:17:55.584Z,99.90
2022-10-11T11:23:32.091Z,99.90
2022-10-11T11:28:36.817Z,99.90
2022-10-11T11:33:49.651Z,99.90
2022-10-11T11:38:56.285Z,99.90
2022-10-11T11:44:00.535Z,99.90
2022-10-11T11:49:13.106Z,99.90
2022-10-11T11:54:25.000Z,99.90
2022-10-11T11:59:42.066Z,99.90
2022-10-11T12:04:45.135Z,99.90
2022-10-11T12:09:52.807Z,99.90
2022-10-11T12:15:10.209Z,99.90
2022-10-11T12:20:24.117Z,99.90
2022-10-11T12:25:29.644Z,96.50
2022-10-11T12:30:53.366Z,99.90
2022-10-11T12:35:55.254Z,99.90
2022-10-11T12:41:00.775Z,99.90
2022-10-11T12:46:33.664Z,99.90
2022-10-11T12:51:54.439Z,99.90
2022-10-11T12:57:11.864Z,99.90
2022-10-11T13:02:29.897Z,99.90
2022-10-11T13:07:32.037Z,99.90
2022-10-11T13:12:42.022Z,99.90
2022-10-11T13:17:44.178Z,89.60
2022-10-11T13:22:51.726Z,89.10
2022-10-11T13:27:55.496Z,68.00
2022-10-11T13:32:59.448Z,79.50
2022-10-11T13:38:02.004Z,72.60
2022-10-11T13:43:05.405Z,77.60
2022-10-11T13:48:14.437Z,78.50
2022-10-11T13:53:16.812Z,99.80
2022-10-11T13:58:27.102Z,94.10
2022-10-11T14:03:41.472Z,69.40
2022-10-11T14:08:46.731Z,76.00
2022-10-11T14:13:51.343Z,64.40
2022-10-11T14:18:59.144Z,64.20
2022-10-11T14:24:00.937Z,71.50
2022-10-11T14:29:07.509Z,65.10
2022-10-11T14:34:24.468Z,63.00
2022-10-11T14:39:28.302Z,63.90
2022-10-11T14:44:30.159Z,64.50
2022-10-11T14:49:34.545Z,66.70
2022-10-11T14:54:36.410Z,65.10
2022-10-11T14:59:38.542Z,69.10
2022-10-11T15:04:40.422Z,67.60
2022-10-11T15:09:42.290Z,69.60
2022-10-11T15:14:44.329Z,69.50
2022-10-11T15:19:46.326Z,70.80
2022-10-11T15:24:51.509Z,73.80
2022-10-11T15:29:54.056Z,70.50
2022-10-11T15:34:55.872Z,71.40
2022-10-11T15:39:57.783Z,72.50
2022-10-11T15:44:59.661Z,75.80
2022-10-11T15:50:01.658Z,75.50
2022-10-11T15:55:04.975Z,70.00
2022-10-11T16:00:07.500Z,70.00
2022-10-11T16:05:09.378Z,71.40
2022-10-11T16:10:11.189Z,76.50
2022-10-11T16:15:13.771Z,77.80
2022-10-11T16:20:18.585Z,79.50
2022-10-11T16:25:24.347Z,82.40
2022-10-11T16:30:26.624Z,84.60
2022-10-11T16:35:32.387Z,85.30
2022-10-11T16:40:36.015Z,84.50
2022-10-11T16:45:38.734Z,86.40
2022-10-11T16:50:40.582Z,88.60
2022-10-11T16:55:42.778Z,90.40
2022-10-11T17:00:44.687Z,91.40
2022-10-11T17:05:46.562Z,92.00
2022-10-11T17:10:57.675Z,92.80
2022-10-11T17:15:59.875Z,93.50
2022-10-11T17:21:03.792Z,94.10
